createdAt,value
2022-12-19T00:00:51.664Z,10.00
2022-12-19T00:03:24.388Z,6.85
2022-12-19T00:05:54.469Z,9.95
2022-12-19T00:08:24.535Z,11.15
2022-12-19T00:10:58.890Z,10.70
2022-12-19T00:13:31.176Z,10.82
2022-12-19T00:16:06.060Z,11.57
2022-12-19T00:18:39.005Z,11.32
2022-12-19T00:21:09.645Z,11.02
2022-12-19T00:23:39.613Z,11.15
2022-12-19T00:26:11.586Z,9.55
2022-12-19T00:28:41.732Z,10.35
2022-12-19T00:31:12.424Z,8.07
2022-12-19T00:33:45.251Z,9.75
2022-12-19T00:36:17.031Z,10.30
2022-12-19T00:38:53.455Z,10.10
2022-12-19T00:41:25.008Z,10.32
2022-12-19T00:43:56.897Z,9.07
2022-12-19T00:46:27.400Z,8.68
2022-12-19T00:49:00.055Z,11.25
2022-12-19T00:51:32.290Z,12.50
2022-12-19T00:54:03.096Z,9.90
2022-12-19T00:56:38.328Z,10.35
2022-12-19T00:59:09.080Z,9.60
2022-12-19T01:01:42.043Z,9.93
2022-12-19T01:04:28.082Z,9.23
2022-12-19T01:07:02.541Z,9.13
2022-12-19T01:09:33.657Z,6.70
2022-12-19T01:12:16.309Z,8.38
2022-12-19T01:14:46.323Z,7.85
2022-12-19T01:17:16.464Z,8.52
2022-12-19T01:19:49.304Z,8.65
2022-12-19T01:22:19.295Z,9.00
2022-12-19T01:24:49.606Z,9.40
2022-12-19T01:27:19.581Z,8.82
2022-12-19T01:29:52.151Z,8.90
2022-12-19T01:32:25.901Z,8.50
2022-12-19T01:34:58.537Z,9.10
2022-12-19T01:37:28.509Z,8.20
2022-12-19T01:39:58.923Z,7.95
2022-12-19T01:42:29.770Z,7.47
2022-12-19T01:45:33.415Z,8.05
2022-12-19T01:48:15.571Z,7.20
2022-12-19T01:51:02.051Z,7.88
2022-12-19T01:53:48.459Z,5.57
2022-12-19T01:56:22.514Z,6.00
2022-12-19T01:59:00.593Z,5.85
2022-12-19T02:01:37.304Z,7.10
2022-12-19T02:04:17.839Z,8.48
2022-12-19T02:06:51.253Z,6.00
2022-12-19T02:09:21.897Z,8.23
2022-12-19T02:11:51.940Z,7.30
2022-12-19T02:14:22.556Z,7.15
2022-12-19T02:16:57.785Z,5.35
2022-12-19T02:20:11.012Z,4.45
2022-12-19T02:22:54.688Z,6.15
2022-12-19T02:26:03.109Z,6.60
2022-12-19T02:28:57.716Z,6.97
2022-12-19T02:31:33.973Z,6.55
2022-12-19T02:34:09.946Z,7.25
2022-12-19T02:36:45.309Z,7.40
2022-12-19T02:39:21.593Z,5.05
2022-12-19T02:41:56.155Z,5.20
2022-12-19T02:44:32.119Z,6.50
2022-12-19T02:47:07.476Z,7.05
2022-12-19T02:49:39.374Z,4.78
2022-12-19T02:52:13.367Z,5.88
2022-12-19T02:54:45.187Z,4.80
2022-12-19T02:57:22.210Z,5.53
2022-12-19T03:00:03.065Z,3.97
2022-12-19T03:02:44.000Z,5.10
2022-12-19T03:05:27.953Z,6.28
2022-12-19T03:08:04.816Z,3.60
2022-12-19T03:10:43.601Z,6.07
2022-12-19T03:13:20.466Z,7.47
2022-12-19T03:15:50.969Z,6.65
2022-12-19T03:18:24.307Z,5.20
2022-12-19T03:21:00.565Z,5.50
2022-12-19T03:23:31.174Z,4.88
2022-12-19T03:26:05.578Z,6.93
2022-12-19T03:28:41.060Z,3.78
2022-12-19T03:31:12.756Z,4.13
2022-12-19T03:33:48.141Z,3.03
2022-12-19T03:36:22.886Z,5.70
2022-12-19T03:38:53.570Z,4.82
2022-12-19T03:41:46.014Z,7.10
2022-12-19T03:44:15.996Z,5.65
2022-12-19T03:46:52.335Z,7.03
2022-12-19T03:49:25.040Z,6.85
2022-12-19T03:52:00.870Z,6.03
2022-12-19T03:54:34.114Z,4.30
2022-12-19T03:57:09.613Z,4.88
2022-12-19T03:59:45.911Z,4.47
2022-12-19T04:02:19.329Z,6.07
2022-12-19T04:04:56.437Z,6.13
2022-12-19T04:07:27.420Z,5.10
2022-12-19T04:10:01.841Z,6.15
2022-12-19T04:12:36.956Z,8.40
2022-12-19T04:15:08.007Z,3.92
2022-12-19T04:17:43.972Z,4.38
2022-12-19T04:20:18.397Z,3.95
2022-12-19T04:22:57.647Z,4.40
2022-12-19T04:25:32.085Z,6.50
2022-12-19T04:28:09.194Z,5.70
2022-12-19T04:30:41.819Z,3.95
2022-12-19T04:33:11.778Z,4.70
2022-12-19T04:35:44.575Z,4.45
2022-12-19T04:38:14.703Z,4.68
2022-12-19T04:40:44.794Z,6.85
2022-12-19T04:43:14.915Z,4.35
2022-12-19T04:45:45.006Z,6.00
2022-12-19T04:48:15.412Z,4.57
2022-12-19T04:50:48.198Z,7.00
2022-12-19T04:53:18.402Z,4.93
2022-12-19T04:55:48.631Z,3.97
2022-12-19T04:58:21.863Z,3.97
2022-12-19T05:00:52.152Z,5.47
2022-12-19T05:03:22.224Z,5.25
2022-12-19T05:05:54.807Z,4.03
2022-12-19T05:08:24.802Z,6.60
2022-12-19T05:10:54.777Z,3.67
2022-12-19T05:13:24.762Z,4.60
2022-12-19T05:15:59.731Z,5.10
2022-12-19T05:18:30.739Z,4.20
2022-12-19T05:21:03.410Z,4.15
2022-12-19T05:23:33.694Z,4.60
2022-12-19T05:26:05.218Z,4.90
2022-12-19T05:28:35.656Z,5.00
2022-12-19T05:31:07.564Z,4.28
2022-12-19T05:33:38.327Z,4.57
2022-12-19T05:36:12.344Z,5.13
2022-12-19T05:38:42.514Z,4.13
2022-12-19T05:41:14.327Z,4.25
2022-12-19T05:43:44.696Z,4.30
2022-12-19T05:46:14.893Z,4.93
2022-12-19T05:48:45.030Z,4.43
2022-12-19T05:51:18.606Z,3.55
2022-12-19T05:53:48.874Z,3.40
2022-12-19T05:56:20.871Z,4.07
2022-12-19T05:58:51.354Z,3.95
2022-12-19T06:01:23.540Z,2.88
2022-12-19T06:03:53.941Z,4.80
2022-12-19T06:06:28.539Z,3.60
2022-12-19T06:08:59.760Z,4.30
2022-12-19T06:11:30.273Z,4.22
2022-12-19T06:14:00.443Z,4.13
2022-12-19T06:16:30.539Z,4.13
2022-12-19T06:19:00.597Z,3.50
2022-12-19T06:21:33.282Z,3.70
2022-12-19T06:24:05.977Z,3.45
2022-12-19T06:26:36.080Z,3.80
2022-12-19T06:29:06.175Z,4.55
2022-12-19T06:31:36.236Z,3.30
2022-12-19T06:34:06.422Z,3.83
2022-12-19T06:36:39.846Z,3.58
2022-12-19T06:39:09.889Z,2.40
2022-12-19T06:41:52.323Z,5.07
2022-12-19T06:44:22.523Z,4.30
2022-12-19T06:46:54.635Z,4.18
2022-12-19T06:49:24.722Z,3.90
2022-12-19T06:51:57.389Z,4.15
2022-12-19T06:54:27.995Z,3.58
2022-12-19T06:56:58.137Z,4.18
2022-12-19T06:59:28.202Z,6.18
2022-12-19T07:02:01.468Z,3.65
2022-12-19T07:04:34.869Z,2.20
2022-12-19T07:07:08.033Z,3.50
2022-12-19T07:09:38.407Z,3.33
2022-12-19T07:12:08.993Z,3.00
2022-12-19T07:14:39.054Z,2.65
2022-12-19T07:17:09.235Z,2.67
2022-12-19T07:19:40.265Z,2.15
2022-12-19T07:22:13.070Z,3.63
2022-12-19T07:24:43.134Z,4.65
2022-12-19T07:27:13.503Z,3.13
2022-12-19T07:29:43.759Z,2.47
2022-12-19T07:32:13.757Z,3.17
2022-12-19T07:34:43.892Z,2.83
2022-12-19T07:37:16.617Z,2.85
2022-12-19T07:39:46.917Z,3.47
2022-12-19T07:42:17.117Z,2.90
2022-12-19T07:44:47.164Z,3.55
2022-12-19T07:47:17.557Z,3.45
2022-12-19T07:49:47.642Z,5.50
2022-12-19T07:52:20.234Z,4.25
2022-12-19T07:54:50.331Z,2.80
2022-12-19T07:57:20.383Z,2.90
2022-12-19T07:59:50.397Z,2.72
2022-12-19T08:02:20.702Z,2.97
2022-12-19T08:04:51.032Z,3.60
2022-12-19T08:07:23.650Z,4.70
2022-12-19T08:09:54.056Z,2.97
2022-12-19T08:12:24.084Z,2.13
2022-12-19T08:14:57.139Z,3.03
2022-12-19T08:17:28.059Z,3.03
2022-12-19T08:19:58.225Z,3.85
2022-12-19T08:22:32.735Z,3.75
2022-12-19T08:25:03.054Z,2.60
2022-12-19T08:27:35.200Z,2.78
2022-12-19T08:30:05.957Z,3.17
2022-12-19T08:32:36.138Z,6.00
2022-12-19T08:35:07.577Z,2.58
2022-12-19T08:37:41.705Z,2.40
2022-12-19T08:40:13.370Z,2.50
2022-12-19T08:42:44.113Z,2.40
2022-12-19T08:45:15.452Z,1.33
2022-12-19T08:47:46.020Z,2.03
2022-12-19T08:50:17.265Z,1.92
2022-12-19T08:52:53.396Z,2.97
2022-12-19T08:55:23.854Z,3.08
2022-12-19T08:57:54.085Z,2.97
2022-12-19T09:00:25.189Z,2.67
2022-12-19T09:02:56.782Z,2.20
2022-12-19T09:06:04.533Z,4.43
2022-12-19T09:08:19.626Z,2.13
2022-12-19T09:10:49.911Z,2.53
2022-12-19T09:13:20.653Z,2.85
2022-12-19T09:15:50.941Z,2.10
2022-12-19T09:18:20.970Z,2.15
2022-12-19T09:20:56.965Z,2.50
2022-12-19T09:23:31.913Z,4.13
2022-12-19T09:26:06.385Z,3.15
2022-12-19T09:28:37.084Z,2.22
2022-12-19T09:31:09.643Z,2.47
2022-12-19T09:36:26.128Z,3.35
2022-12-19T09:39:00.743Z,2.10
2022-12-19T09:42:07.765Z,2.28
2022-12-19T09:45:01.823Z,1.55
2022-12-19T09:47:34.222Z,2.15
2022-12-19T09:50:05.625Z,1.63
2022-12-19T09:52:39.604Z,3.13
2022-12-19T09:55:19.910Z,1.85
2022-12-19T09:57:58.528Z,1.90
2022-12-19T10:00:36.767Z,2.50
2022-12-19T10:03:15.568Z,2.28
2022-12-19T10:06:40.411Z,4.13
2022-12-19T10:09:22.806Z,4.22
2022-12-19T10:12:46.001Z,5.40
2022-12-19T10:15:00.512Z,1.92
2022-12-19T10:17:40.261Z,2.25
2022-12-19T10:20:24.493Z,1.42
2022-12-19T10:23:06.588Z,4.82
2022-12-19T10:25:59.137Z,1.98
2022-12-19T10:28:46.630Z,2.65
2022-12-19T10:31:22.636Z,3.85
2022-12-19T10:34:01.842Z,3.00
2022-12-19T10:37:04.654Z,3.33
2022-12-19T10:39:33.078Z,2.22
2022-12-19T10:42:14.018Z,2.75
2022-12-19T10:44:48.718Z,3.20
2022-12-19T10:47:20.213Z,1.98
2022-12-19T10:49:50.503Z,2.80
2022-12-19T10:52:54.322Z,2.88
2022-12-19T10:55:47.401Z,1.80
2022-12-19T10:58:26.894Z,3.47
2022-12-19T11:01:08.275Z,2.80
2022-12-19T11:03:39.339Z,2.35
2022-12-19T11:06:30.166Z,2.13
2022-12-19T11:09:27.723Z,2.38
2022-12-19T11:19:13.402Z,1.70
2022-12-19T11:29:15.400Z,1.80
2022-12-19T11:29:39.168Z,2.95
2022-12-19T11:29:40.284Z,1.88
2022-12-19T11:30:43.366Z,2.13
2022-12-19T11:32:44.476Z,1.40
2022-12-19T11:35:36.398Z,1.92
2022-12-19T11:38:09.556Z,3.65
2022-12-19T11:40:48.962Z,2.30
2022-12-19T11:43:44.857Z,2.22
2022-12-19T11:46:24.411Z,1.95
2022-12-19T11:48:57.967Z,2.03
2022-12-19T11:51:34.588Z,0.85
2022-12-19T11:54:10.968Z,3.60
2022-12-19T11:56:40.998Z,1.13
2022-12-19T11:59:25.992Z,3.47
2022-12-19T12:02:05.463Z,1.45
2022-12-19T12:05:03.660Z,4.97
2022-12-19T12:09:44.343Z,2.45
2022-12-19T12:15:21.813Z,3.65
2022-12-19T12:19:28.010Z,1.58
2022-12-19T12:24:49.633Z,3.10
2022-12-19T12:30:39.070Z,3.63
2022-12-19T12:31:12.794Z,4.55
2022-12-19T12:31:48.339Z,3.15
2022-12-19T12:31:52.363Z,3.88
2022-12-19T12:35:34.976Z,1.42
2022-12-19T12:37:18.771Z,3.00
2022-12-19T12:41:42.352Z,3.03
2022-12-19T12:44:15.373Z,2.50
2022-12-19T12:46:52.235Z,3.70
2022-12-19T12:49:40.945Z,3.28
2022-12-19T12:52:18.202Z,2.20
2022-12-19T12:54:52.557Z,2.72
2022-12-19T12:57:37.726Z,3.45
2022-12-19T13:00:24.787Z,3.60
2022-12-19T13:03:01.456Z,1.15
2022-12-19T13:05:53.765Z,3.65
2022-12-19T13:08:38.814Z,1.73
2022-12-19T13:11:34.337Z,2.95
2022-12-19T13:14:04.558Z,1.42
2022-12-19T13:17:01.540Z,2.58
2022-12-19T13:19:35.784Z,2.72
2022-12-19T13:22:22.787Z,1.00
2022-12-19T13:24:54.043Z,1.77
2022-12-19T13:27:44.549Z,1.95
2022-12-19T13:30:20.222Z,2.92
2022-12-19T13:33:15.702Z,2.75
2022-12-19T13:39:12.646Z,1.00
2022-12-19T13:39:54.165Z,2.72
2022-12-19T13:41:57.843Z,3.25
2022-12-19T13:44:28.540Z,2.65
2022-12-19T13:46:59.143Z,1.45
2022-12-19T13:49:34.793Z,3.38
2022-12-19T13:52:09.743Z,1.65
2022-12-19T13:54:50.235Z,1.08
2022-12-19T13:57:28.634Z,1.35
2022-12-19T14:00:04.277Z,1.38
2022-12-19T14:02:44.299Z,2.40
2022-12-19T14:05:34.057Z,1.58
2022-12-19T14:08:23.617Z,2.47
2022-12-19T14:11:48.445Z,1.20
2022-12-19T14:14:08.120Z,1.23
2022-12-19T14:16:45.910Z,2.17
2022-12-19T14:22:07.371Z,1.58
2022-12-19T14:26:09.752Z,1.75
2022-12-19T14:28:23.737Z,1.25
2022-12-19T14:30:49.623Z,1.33
2022-12-19T14:33:47.794Z,1.55
2022-12-19T14:36:21.428Z,1.65
2022-12-19T14:39:25.061Z,1.00
2022-12-19T14:42:03.644Z,1.55
2022-12-19T14:52:26.236Z,2.70
2022-12-19T14:54:14.922Z,2.78
2022-12-19T14:54:15.828Z,3.13
2022-12-19T14:54:33.978Z,2.83
2022-12-19T14:59:29.657Z,1.25
2022-12-19T15:02:04.694Z,1.38
2022-12-19T15:04:52.515Z,2.53
2022-12-19T15:07:40.675Z,4.03
2022-12-19T15:11:08.238Z,2.33
2022-12-19T15:14:54.140Z,1.80
2022-12-19T15:16:28.028Z,3.25
2022-12-19T15:19:00.408Z,2.15
2022-12-19T15:21:31.817Z,3.33
2022-12-19T15:24:01.970Z,1.42
2022-12-19T15:26:35.048Z,3.00
2022-12-19T15:29:09.967Z,3.00
2022-12-19T15:31:44.980Z,1.42
2022-12-19T15:34:35.880Z,1.08
2022-12-19T15:37:08.368Z,1.00
2022-12-19T15:39:38.882Z,3.45
2022-12-19T15:42:14.905Z,1.35
2022-12-19T15:44:46.701Z,2.92
2022-12-19T15:47:28.662Z,2.90
2022-12-19T15:50:02.777Z,3.17
2022-12-19T15:52:33.383Z,3.60
2022-12-19T15:55:03.795Z,9.60
2022-12-19T15:57:36.726Z,3.28
2022-12-19T16:00:13.881Z,3.20
2022-12-19T16:03:22.887Z,1.40
2022-12-19T16:05:37.252Z,3.63
2022-12-19T16:08:13.391Z,1.02
2022-12-19T16:10:44.556Z,4.22
2022-12-19T16:15:49.714Z,1.92
2022-12-19T16:18:22.859Z,1.85
2022-12-19T16:20:53.548Z,3.80
2022-12-19T16:23:25.905Z,4.43
2022-12-19T16:25:56.225Z,3.53
2022-12-19T16:28:32.176Z,5.43
2022-12-19T16:31:15.574Z,8.60
2022-12-19T16:33:49.151Z,3.20
2022-12-19T16:36:19.389Z,1.92
2022-12-19T16:38:50.169Z,3.40
2022-12-19T16:41:23.889Z,1.55
2022-12-19T16:43:55.656Z,1.58
2022-12-19T16:46:33.782Z,3.78
2022-12-19T16:49:13.999Z,2.03
2022-12-19T16:51:53.322Z,3.92
2022-12-19T16:54:23.536Z,1.15
2022-12-19T16:56:55.621Z,2.90
2022-12-19T16:59:38.298Z,2.78
2022-12-19T17:02:40.873Z,3.10
2022-12-19T17:05:22.388Z,3.35
2022-12-19T17:07:53.550Z,3.65
2022-12-19T17:12:57.439Z,1.60
2022-12-19T17:15:31.225Z,4.25
2022-12-19T17:18:03.873Z,3.63
2022-12-19T17:20:43.045Z,3.63
2022-12-19T17:23:17.246Z,2.28
2022-12-19T17:25:47.961Z,4.60
2022-12-19T17:28:19.264Z,4.05
2022-12-19T17:30:54.551Z,5.10
2022-12-19T17:33:27.802Z,4.18
2022-12-19T17:36:03.571Z,3.70
2022-12-19T17:38:33.861Z,3.75
2022-12-19T17:41:04.804Z,2.15
2022-12-19T17:43:35.112Z,3.72
2022-12-19T17:46:05.562Z,4.82
2022-12-19T17:48:36.828Z,3.30
2022-12-19T17:53:39.697Z,3.70
2022-12-19T17:56:15.702Z,2.00
2022-12-19T17:58:46.346Z,3.65
2022-12-19T18:01:24.090Z,3.65
2022-12-19T18:03:56.697Z,1.65
2022-12-19T18:06:30.077Z,3.28
2022-12-19T18:09:02.873Z,3.97
2022-12-19T18:11:40.020Z,3.97
2022-12-19T18:14:12.151Z,3.42
2022-12-19T18:16:42.981Z,4.25
2022-12-19T18:19:20.139Z,1.45
2022-12-19T18:21:53.298Z,3.13
2022-12-19T18:24:23.335Z,4.07
2022-12-19T18:26:53.507Z,1.80
2022-12-19T18:29:24.106Z,1.73
2022-12-19T18:31:54.566Z,3.83
2022-12-19T18:34:27.986Z,1.60
2022-12-19T18:37:00.969Z,3.58
2022-12-19T18:39:33.724Z,3.13
2022-12-19T18:42:04.076Z,2.95
2022-12-19T18:44:34.372Z,1.20
2022-12-19T18:47:04.565Z,1.60
2022-12-19T18:49:36.809Z,3.13
2022-12-19T18:52:14.399Z,3.30
2022-12-19T18:54:44.617Z,3.90
2022-12-19T18:57:14.785Z,3.13
2022-12-19T18:59:45.086Z,3.22
2022-12-19T19:02:29.034Z,3.22
2022-12-19T19:04:59.811Z,4.10
2022-12-19T19:07:32.923Z,1.70
2022-12-19T19:10:03.103Z,2.72
2022-12-19T19:12:36.003Z,3.78
2022-12-19T19:15:06.252Z,1.60
2022-12-19T19:17:36.855Z,3.03
2022-12-19T19:20:07.851Z,1.65
2022-12-19T19:22:40.759Z,4.15
2022-12-19T19:25:12.069Z,3.88
2022-12-19T19:27:42.514Z,3.13
2022-12-19T19:30:14.149Z,1.75
2022-12-19T19:32:51.238Z,1.80
2022-12-19T19:35:23.626Z,3.42
2022-12-19T19:38:02.620Z,3.53
2022-12-19T19:40:33.090Z,3.63
2022-12-19T19:43:03.530Z,3.60
2022-12-19T19:45:36.817Z,4.20
2022-12-19T19:50:42.021Z,2.90
2022-12-19T19:53:14.934Z,3.20
2022-12-19T19:55:45.198Z,3.47
2022-12-19T19:58:15.424Z,3.10
2022-12-19T20:00:45.807Z,3.38
2022-12-19T20:03:22.220Z,3.72
2022-12-19T20:05:53.839Z,3.05
2022-12-19T20:08:26.864Z,3.70
2022-12-19T20:10:58.501Z,1.55
2022-12-19T20:13:29.062Z,3.10
2022-12-19T20:16:04.810Z,3.85
2022-12-19T20:18:35.461Z,3.13
2022-12-19T20:21:12.131Z,3.13
2022-12-19T20:23:48.760Z,3.03
2022-12-19T20:26:20.431Z,3.30
2022-12-19T20:28:52.907Z,1.25
2022-12-19T20:31:24.803Z,2.50
2022-12-19T20:33:57.132Z,3.13
2022-12-19T20:36:27.951Z,1.30
2022-12-19T20:39:00.806Z,4.05
2022-12-19T20:41:31.072Z,4.07
2022-12-19T20:44:01.262Z,3.35
2022-12-19T20:46:31.495Z,2.47
2022-12-19T20:49:02.150Z,1.50
2022-12-19T20:51:32.357Z,3.33
2022-12-19T20:54:05.483Z,3.63
2022-12-19T20:56:36.292Z,3.15
2022-12-19T20:59:06.604Z,3.33
2022-12-19T21:01:36.957Z,3.72
2022-12-19T21:04:07.954Z,2.05
2022-12-19T21:09:11.707Z,3.33
2022-12-19T21:11:42.074Z,1.77
2022-12-19T21:14:12.273Z,4.20
2022-12-19T21:16:42.932Z,2.17
2022-12-19T21:19:13.409Z,1.85
2022-12-19T21:21:43.816Z,1.70
2022-12-19T21:24:16.796Z,3.15
2022-12-19T21:26:48.618Z,1.52
2022-12-19T21:29:21.440Z,3.22
2022-12-19T21:31:52.165Z,2.70
2022-12-19T21:34:22.474Z,2.88
2022-12-19T21:36:52.564Z,4.13
2022-12-19T21:39:25.860Z,3.65
2022-12-19T21:41:56.173Z,2.33
2022-12-19T21:44:26.493Z,1.60
2022-12-19T21:46:56.681Z,2.75
2022-12-19T21:49:27.178Z,2.90
2022-12-19T21:51:57.477Z,3.72
2022-12-19T21:54:30.383Z,2.75
2022-12-19T21:57:00.602Z,3.88
2022-12-19T21:59:30.773Z,1.00
2022-12-19T22:02:12.419Z,2.35
2022-12-19T22:04:42.940Z,1.75
2022-12-19T22:07:13.163Z,2.83
2022-12-19T22:09:53.249Z,2.75
2022-12-19T22:12:23.581Z,3.08
2022-12-19T22:14:56.138Z,1.83
2022-12-19T22:17:26.497Z,1.30
2022-12-19T22:19:56.703Z,2.10
2022-12-19T22:22:26.813Z,3.33
2022-12-19T22:24:59.657Z,2.50
2022-12-19T22:27:29.752Z,3.05
2022-12-19T22:30:05.039Z,1.15
2022-12-19T22:32:40.627Z,1.70
2022-12-19T22:35:11.782Z,2.78
2022-12-19T22:40:16.278Z,3.05
2022-12-19T22:42:46.564Z,2.55
2022-12-19T22:45:16.803Z,3.05
2022-12-19T22:47:47.131Z,1.20
2022-12-19T22:50:17.617Z,3.15
2022-12-19T22:52:47.853Z,3.90
2022-12-19T22:55:20.823Z,3.88
2022-12-19T22:57:51.208Z,3.50
2022-12-19T23:00:24.178Z,3.03
2022-12-19T23:02:54.500Z,1.13
2022-12-19T23:05:24.864Z,2.35
2022-12-19T23:07:55.061Z,0.90
2022-12-19T23:10:27.799Z,2.95
2022-12-19T23:12:58.407Z,3.00
2022-12-19T23:15:28.700Z,3.35
2022-12-19T23:17:58.921Z,2.63
2022-12-19T23:20:29.143Z,2.83
2022-12-19T23:23:08.342Z,3.97
2022-12-19T23:25:44.635Z,3.13
2022-12-19T23:28:18.141Z,3.78
2022-12-19T23:30:48.701Z,3.05
2022-12-19T23:33:18.835Z,2.83
2022-12-19T23:35:49.287Z,1.27
2022-12-19T23:38:19.478Z,2.10
2022-12-19T23:40:52.530Z,2.63
2022-12-19T23:43:22.673Z,2.47
2022-12-19T23:45:53.040Z,3.22
2022-12-19T23:48:27.042Z,2.60
2022-12-19T23:51:01.451Z,2.83
2022-12-19T23:53:32.315Z,2.65
2022-12-19T23:56:06.757Z,3.20
2022-12-19T23:58:37.057Z,3.08
